ENAL Informações do Aeroporto

Informações da Pista
Pista 07 Comprimento 7592 ft Largura 148 ft
Elevação 34 ft Limite 490 ft Heading 65
Pista 25 Comprimento 7592 ft Largura 148 ft
Elevação 48 ft Limite 755 ft Heading 245
Frequências do Aeroporto
Tipo ATIS Nome ATIS Frequência 128.65 MHZ
Tipo TWR Nome TWR Frequência 119.85 MHZ
Navaids do Aeroporto
Tipo NDB Nome Vigra Frequência 355 KHZ
Tipo TACAN Nome Vigra Frequência 112400 KHZ
Tipo VOR-DME Nome Vigra Frequência 115800 KHZ
Informações meteorológicas do aeroporto e NOTAM
ADDS - METARS form results

(0812 UTC 18 June 2021)
Data provider http://aviationweather.gov/metar/data/
 
METAR text: ENAL 180750Z 22015KT 9999 FEW010 BKN045 12/09 Q1014
Conditions at: ENAL (ALESUND/VIGRA , NO) observed 0750 UTC 18 June 2021
Temperature: 12.0°C (54°F)
Dewpoint: 9.0°C (48°F) [RH = 82%]
Pressure (altimeter): 29.94 inches Hg (1014.0 mb)
Winds: from the SW (220 degrees) at 17 MPH (15 knots; 7.7 m/s)
Visibility: 6 or more miles (10+ km)
Ceiling: 4500 feet AGL
Clouds: few clouds at 1000 feet AGL
broken clouds at 4500 feet AGL
Weather: no significant weather observed at this time

METAR text: ENAL 180720Z 23013KT 9999 FEW010 BKN045 12/09 Q1014
Conditions at: ENAL (ALESUND/VIGRA , NO) observed 0720 UTC 18 June 2021
Temperature: 12.0°C (54°F)
Dewpoint: 9.0°C (48°F) [RH = 82%]
Pressure (altimeter): 29.94 inches Hg (1014.0 mb)
Winds: from the SW (230 degrees) at 15 MPH (13 knots; 6.7 m/s)
Visibility: 6 or more miles (10+ km)
Ceiling: 4500 feet AGL
Clouds: few clouds at 1000 feet AGL
broken clouds at 4500 feet AGL
Weather: no significant weather observed at this time

Forecast for: ENAL (ALESUND/VIGRA , NO)
Text: TAF ENAL 180500Z 1806/1815 25008KT 9999 FEW010 SCT040
Forecast period: 0600 to 1500 UTC 18 June 2021
Forecast type: FROM: standard forecast or significant change
Winds: from the WSW (250 degrees) at 9 MPH (8 knots; 4.1 m/s)
Visibility: 6 or more miles (10+ km)
Ceiling: at least 12,000 feet AGL
Clouds: few clouds at 1000 feet AGL
scattered clouds at 4000 feet AGL
Weather: no significant weather forecast for this period
Text: PROB40
Forecast period: 0600 to 0800 UTC 18 June 2021
Forecast type: TEMPORARY: The following changes expected for less than half the time period
Visibility: 1.24 miles (2.00 km)
Ceiling: 400 feet AGL
Clouds: broken clouds at 400 feet AGL
Weather: DZ BR  (moderate drizzle, mist)
Text: TEMPO 1806/1808 2000 DZ BR BKN004
Forecast period: 0600 to 1500 UTC 18 June 2021
Forecast type: BECOMING: Conditions expected to become as follows by 0800 UTC 18 June 2021
Winds: from the WSW (240 degrees) at 21 MPH (18 knots; 9.3 m/s)
Visibility: 6 or more miles (10+ km)
Ceiling: at least 12,000 feet AGL
Clouds: few clouds at 1000 feet AGL
scattered clouds at 4000 feet AGL
Weather: no significant weather forecast for this period